IAH weather

Public forecast

Using degrees Fahrenheit for public forecast. Weather courtesy of forecast.io.

Current aviation weather report (METAR) for George Bush Intercontinental Houston Airport

Retrieved 2020/08/10 09:53 UTC (1 hour ago):

KIAH 100953Z 17003KT 10SM FEW022 25/24 A3006 RMK AO2 SLP177 T02500239

Aviation forecast (TAF) for George Bush Intercontinental Houston Airport

Retrieved 2020/08/10 06:22 UTC (5 hours ago):

TAF KIAH 100520Z 1006/1112 17003KT P6SM FEW025 SCT250 FM101400 20007KT P6SM FEW015 SCT025 FM101700 17008KT P6SM FEW045 SCT060 FM110000 16006KT P6SM SKC